Terminal Aerodrome Forecast
Issued by NWS

Home | Current Version | Previous Version | Graphics & Text | Print | Product List | Glossary On
Versions: 1 2 3 4 5 6 7 8 9 10 11 12 13 14 15
995
FTUS43 KICT 182321
TAFCNU
TAF
KCNU 182321Z 1900/1924 17007KT P6SM FEW030
     FM191100 17008KT 4SM BR OVC008
     FM191700 17010KT P6SM OVC014=

USA.gov is the U.S. government's official web portal to all federal, state and local government web resources and services.